Apple Grove, North Carolina
Current Conditions -  °F | °C
As of 12:15 AM on Saturday 20 Dec 2014 (Local Time) from KGEV Reporting Station
Clear Clear  
Wind Chill: 32°   Ceiling: Unl
Heat Index: 32°   Visibility: 10mi
Dew Point: 20°   Wind: 0mph
Humidity: 62%   Direction: NA
Pressure: 30.13"   Gusts: NA
Location:  36.524°N, 81.538°W
Report Text: KGEV 200515Z AUTO 00000KT 10SM CLR 00/M06 A3013 RMK AO2 T00011065
Loading
Personal Weather Stations






























Interactive Weather Map New forecast layout! Learn more

10-Day Weather Forecast

Advertisements
Track Severe Weather on mobile